Aeroporto :
LOGIN :

Iscrizione | Disclaimer

   EN    FR    IT 

 










Sommario :    VFR   VFR Marginale   IFR   IFR Intensivo   IFR Molto Intensivo
Visibilità : 
Base nubi : 
>= 8 km
>= 3000ft
5 / 8 km
1000 / 3000 ft
1500m / 5 km
500 / 1000 ft
800 / 1500m
200 / 500 ft
< 800m
< 200 ft
Simboli :   Temporali  Nebbia  Neve Forte  Precipitazioni Forti  Vento > 20 kt
SIGMETs :   Varie  Temporali  Ghiacco  Turbolenza  Onda orograficha  Ceneri Vulcaniche






- Altitudine del aeroporto : 919 ft
- Codice IATA : IFO


UKLI - Ivano Frankivs'k

ULTIMO METAR :
  • 171530Z 00000MPS 9999 BKN020 09/08 Q1019 R10/090070 NOSIG

METARs OBSOLETI :
  • 171500Z 14003MPS 110V180 9999 SCT021 BKN100 10/09 Q1019 R10/090070 NOSIG
  • 171430Z 19001MPS 9999 SCT022 BKN100 09/08 Q1019 R10/090070 NOSIG
  • 171400Z VRB01MPS 9999 SCT021 BKN100 11/08 Q1019 R10/090070 NOSIG
  • 171330Z 17003MPS 9999 BKN020 12/09 Q1019 R10/090070 NOSIG
  • 171300Z 14003MPS 090V170 9999 BKN016 12/09 Q1019 R10/090070 NOSIG
  • 171254Z 14003MPS 060V200 9999 BKN016 12/09 Q1019 R10/090070 NOSIG

TAF TAF UKLI
Valido dal 17 a 15 ore il 18 a 00 ore UTC


171401Z 1715/1724 VRB01MPS 9999 BKN030
TEMPO 1715/1718 2100 BR BKN007
TEMPO 1718/1724 0400 FG VV002



MetMap, La meteo Aeronautica in un colpo d'occhio ! - Copyright ORBIFLY Dicembre 2007 - Disclaimer

ORBIFLY MET'MAP TEAM :

Programmazione e sviluppo : Alexandra Zaïnal
Concezione e sviluppo : Baudouin d'Aumeries
Co-Programmazione e sviluppo : Marc-Olivier Méhu
Supporto tecnico e logistico : Manuel Goepfert
Aiuto per la traduzione : Arnaldo La Scala

Contatto : metmap@orbifly.com




FONTI E CREDITI :

   NOAA